KSLI

Los Alamitos AAF Airport

Los Alamitos, California, USA
METAR KSLI 231358Z 00000KT 10SM OVC032 16/12 A2996 RMK AO2A SLP148 T01580122
Observed Flight Rules
May-23 @ 13:58 UTC (an hour ago) Visual Flight Rules
Visibility Clouds
10 miles
  • Overcast at 3,200' AGL
Temperatures Readings
Current 16°C / 61°F
Dewpoint 12°C / 54°F
Humidity 77%
Altimeter 29.96" Hg
Pressure 1014.8 hPa
Elevation 11
METAR KSLI 231358Z 00000KT 10SM OVC032 16/12 A2996 RMK AO2A SLP148 T01580122
Observed Flight Rules
May-23 @ 13:58 UTC
(an hour ago)
VFR
Clouds
  • Overcast at 3,200' AGL
Temperature Dewpoint
16°C / 61°F 12°C / 54°F
Humidity Altimeter Pressure
77% 29.96" Hg 1014.8 hPa